sensor_id;sensor_type;location;lat;lon;timestamp;pressure;altitude;pressure_sealevel;temperature;humidity
24558;BME280;12726;49.148;8.582;2023-05-01T00:01:47;100343.13;;;9.73;96.78
24558;BME280;12726;49.148;8.582;2023-05-01T00:04:33;100332.59;;;9.72;96.63
24558;BME280;12726;49.148;8.582;2023-05-01T00:07:18;100344.38;;;9.71;96.88
24558;BME280;12726;49.148;8.582;2023-05-01T00:10:04;100341.69;;;9.64;96.84
24558;BME280;12726;49.148;8.582;2023-05-01T00:12:49;100334.66;;;9.63;97.14
24558;BME280;12726;49.148;8.582;2023-05-01T00:15:36;100332.38;;;9.60;96.89
24558;BME280;12726;49.148;8.582;2023-05-01T00:18:21;100321.22;;;9.57;96.91
24558;BME280;12726;49.148;8.582;2023-05-01T00:21:07;100320.59;;;9.55;96.74
24558;BME280;12726;49.148;8.582;2023-05-01T00:23:52;100325.59;;;9.51;97.44
24558;BME280;12726;49.148;8.582;2023-05-01T00:26:38;100328.47;;;9.50;97.35
24558;BME280;12726;49.148;8.582;2023-05-01T00:29:23;100321.25;;;9.50;97.63
24558;BME280;12726;49.148;8.582;2023-05-01T00:32:10;100323.28;;;9.48;97.62
24558;BME280;12726;49.148;8.582;2023-05-01T00:34:55;100318.94;;;9.47;97.55
24558;BME280;12726;49.148;8.582;2023-05-01T00:37:41;100318.13;;;9.47;97.35
24558;BME280;12726;49.148;8.582;2023-05-01T00:40:26;100316.69;;;9.44;97.25
24558;BME280;12726;49.148;8.582;2023-05-01T00:43:12;100297.47;;;9.40;97.09
24558;BME280;12726;49.148;8.582;2023-05-01T00:45:58;100307.59;;;9.38;97.53
24558;BME280;12726;49.148;8.582;2023-05-01T00:48:45;100310.69;;;9.35;97.50
24558;BME280;12726;49.148;8.582;2023-05-01T00:51:30;100304.06;;;9.31;97.59
24558;BME280;12726;49.148;8.582;2023-05-01T00:54:15;100303.25;;;9.31;97.50
24558;BME280;12726;49.148;8.582;2023-05-01T00:57:02;100303.03;;;9.26;97.69
24558;BME280;12726;49.148;8.582;2023-05-01T00:59:48;100299.31;;;9.27;97.73
24558;BME280;12726;49.148;8.582;2023-05-01T01:02:33;100294.78;;;9.27;97.02
24558;BME280;12726;49.148;8.582;2023-05-01T01:05:20;100294.16;;;9.32;96.86
24558;BME280;12726;49.148;8.582;2023-05-01T01:08:14;100290.63;;;9.31;96.86
24558;BME280;12726;49.148;8.582;2023-05-01T01:11:12;100296.44;;;9.35;96.42
24558;BME280;12726;49.148;8.582;2023-05-01T01:14:04;100297.66;;;9.39;95.51
24558;BME280;12726;49.148;8.582;2023-05-01T01:16:56;100283.41;;;9.45;93.94
24558;BME280;12726;49.148;8.582;2023-05-01T01:20:08;100288.16;;;9.50;92.75
24558;BME280;12726;49.148;8.582;2023-05-01T01:26:23;100270.78;;;9.52;92.04
24558;BME280;12726;49.148;8.582;2023-05-01T01:29:43;100274.53;;;9.51;91.92
24558;BME280;12726;49.148;8.582;2023-05-01T01:35:54;100265.84;;;9.49;91.79
24558;BME280;12726;49.148;8.582;2023-05-01T01:38:42;100265.00;;;9.49;92.19
24558;BME280;12726;49.148;8.582;2023-05-01T01:41:32;100273.91;;;9.42;92.48
24558;BME280;12726;49.148;8.582;2023-05-01T01:44:22;100266.44;;;9.38;93.09
24558;BME280;12726;49.148;8.582;2023-05-01T01:47:11;100271.22;;;9.36;93.22
24558;BME280;12726;49.148;8.582;2023-05-01T01:50:00;100270.59;;;9.34;93.43
24558;BME280;12726;49.148;8.582;2023-05-01T01:52:48;100263.56;;;9.33;93.70
24558;BME280;12726;49.148;8.582;2023-05-01T01:55:35;100263.19;;;9.29;93.66
24558;BME280;12726;49.148;8.582;2023-05-01T01:58:22;100268.75;;;9.28;94.20
24558;BME280;12726;49.148;8.582;2023-05-01T02:01:09;100276.81;;;9.28;94.30
24558;BME280;12726;49.148;8.582;2023-05-01T02:03:56;100272.47;;;9.27;94.79
24558;BME280;12726;49.148;8.582;2023-05-01T02:06:43;100270.59;;;9.27;94.81
24558;BME280;12726;49.148;8.582;2023-05-01T02:09:33;100271.44;;;9.28;95.34
24558;BME280;12726;49.148;8.582;2023-05-01T02:12:19;100271.22;;;9.29;94.99
24558;BME280;12726;49.148;8.582;2023-05-01T02:15:06;100265.63;;;9.31;95.18
24558;BME280;12726;49.148;8.582;2023-05-01T02:17:54;100267.91;;;9.34;94.98
24558;BME280;12726;49.148;8.582;2023-05-01T02:20:40;100271.22;;;9.36;94.93
24558;BME280;12726;49.148;8.582;2023-05-01T02:23:27;100265.66;;;9.44;94.84
24558;BME280;12726;49.148;8.582;2023-05-01T02:26:16;100265.00;;;9.49;94.14
24558;BME280;12726;49.148;8.582;2023-05-01T02:29:02;100258.16;;;9.53;93.44
24558;BME280;12726;49.148;8.582;2023-05-01T02:31:50;100256.28;;;9.60;92.82
24558;BME280;12726;49.148;8.582;2023-05-01T02:34:35;100262.28;;;9.62;91.68
24558;BME280;12726;49.148;8.582;2023-05-01T02:37:21;100252.38;;;9.62;91.51
24558;BME280;12726;49.148;8.582;2023-05-01T02:40:07;100250.31;;;9.64;91.53
24558;BME280;12726;49.148;8.582;2023-05-01T02:42:54;100253.81;;;9.65;91.26
24558;BME280;12726;49.148;8.582;2023-05-01T02:45:39;100246.34;;;9.67;90.83
24558;BME280;12726;49.148;8.582;2023-05-01T02:48:27;100246.34;;;9.67;90.57
24558;BME280;12726;49.148;8.582;2023-05-01T02:51:12;100242.84;;;9.66;90.45
24558;BME280;12726;49.148;8.582;2023-05-01T02:53:58;100233.97;;;9.66;90.30
24558;BME280;12726;49.148;8.582;2023-05-01T02:56:44;100240.97;;;9.67;90.15
24558;BME280;12726;49.148;8.582;2023-05-01T02:59:31;100240.16;;;9.66;90.02
24558;BME280;12726;49.148;8.582;2023-05-01T03:02:16;100222.41;;;9.65;89.89
24558;BME280;12726;49.148;8.582;2023-05-01T03:05:01;100231.06;;;9.67;89.85
24558;BME280;12726;49.148;8.582;2023-05-01T03:07:46;100221.13;;;9.68;89.33
24558;BME280;12726;49.148;8.582;2023-05-01T03:10:32;100216.59;;;9.68;89.19
24558;BME280;12726;49.148;8.582;2023-05-01T03:13:18;100223.63;;;9.69;88.98
24558;BME280;12726;49.148;8.582;2023-05-01T03:16:05;100218.88;;;9.65;89.30
24558;BME280;12726;49.148;8.582;2023-05-01T03:18:50;100217.22;;;9.64;89.20
24558;BME280;12726;49.148;8.582;2023-05-01T03:21:35;100224.47;;;9.63;89.43
24558;BME280;12726;49.148;8.582;2023-05-01T03:24:21;100212.88;;;9.63;89.04
24558;BME280;12726;49.148;8.582;2023-05-01T03:27:06;100217.44;;;9.62;88.92
24558;BME280;12726;49.148;8.582;2023-05-01T03:29:51;100205.66;;;9.57;88.92
24558;BME280;12726;49.148;8.582;2023-05-01T03:32:38;100214.75;;;9.62;88.59
24558;BME280;12726;49.148;8.582;2023-05-01T03:35:23;100213.09;;;9.61;88.51
24558;BME280;12726;49.148;8.582;2023-05-01T03:38:09;100219.28;;;9.62;88.58
24558;BME280;12726;49.148;8.582;2023-05-01T03:40:54;100223.00;;;9.61;88.68
24558;BME280;12726;49.148;8.582;2023-05-01T03:43:40;100215.78;;;9.61;88.47
24558;BME280;12726;49.148;8.582;2023-05-01T03:46:25;100212.25;;;9.61;88.95
24558;BME280;12726;49.148;8.582;2023-05-01T03:49:12;100202.34;;;9.61;88.97
24558;BME280;12726;49.148;8.582;2023-05-01T03:51:57;100208.34;;;9.63;88.45
24558;BME280;12726;49.148;8.582;2023-05-01T03:54:42;100204.63;;;9.64;88.23
24558;BME280;12726;49.148;8.582;2023-05-01T03:57:28;100200.91;;;9.65;87.64
24558;BME280;12726;49.148;8.582;2023-05-01T04:00:13;100206.28;;;9.65;87.56
24558;BME280;12726;49.148;8.582;2023-05-01T04:02:59;100212.47;;;9.66;87.49
24558;BME280;12726;49.148;8.582;2023-05-01T04:05:45;100201.28;;;9.69;87.05
24558;BME280;12726;49.148;8.582;2023-05-01T04:08:31;100202.31;;;9.68;86.98
24558;BME280;12726;49.148;8.582;2023-05-01T04:11:16;100203.34;;;9.67;86.83
24558;BME280;12726;49.148;8.582;2023-05-01T04:14:01;100208.97;;;9.65;87.05
24558;BME280;12726;49.148;8.582;2023-05-01T04:16:47;100194.47;;;9.66;86.76
24558;BME280;12726;49.148;8.582;2023-05-01T04:19:32;100200.91;;;9.65;86.78
24558;BME280;12726;49.148;8.582;2023-05-01T04:22:20;100209.56;;;9.67;86.52
24558;BME280;12726;49.148;8.582;2023-05-01T04:25:07;100198.78;;;9.74;86.27
24558;BME280;12726;49.148;8.582;2023-05-01T04:27:52;100205.41;;;9.71;86.06
24558;BME280;12726;49.148;8.582;2023-05-01T04:30:37;100198.63;;;9.62;86.51
24558;BME280;12726;49.148;8.582;2023-05-01T04:33:23;100189.53;;;9.63;86.81
24558;BME280;12726;49.148;8.582;2023-05-01T04:36:08;100195.09;;;9.62;86.71
24558;BME280;12726;49.148;8.582;2023-05-01T04:38:56;100195.53;;;9.65;86.81
24558;BME280;12726;49.148;8.582;2023-05-01T04:41:41;100195.53;;;9.65;86.42
24558;BME280;12726;49.148;8.582;2023-05-01T04:44:27;100196.97;;;9.61;86.10
24558;BME280;12726;49.148;8.582;2023-05-01T04:47:12;100196.34;;;9.59;86.73
24558;BME280;12726;49.148;8.582;2023-05-01T04:49:58;100196.13;;;9.61;86.77
24558;BME280;12726;49.148;8.582;2023-05-01T04:52:43;100200.69;;;9.60;86.97
24558;BME280;12726;49.148;8.582;2023-05-01T04:55:30;100203.16;;;9.62;87.08
24558;BME280;12726;49.148;8.582;2023-05-01T04:58:15;100197.38;;;9.65;86.62
24558;BME280;12726;49.148;8.582;2023-05-01T05:01:01;100197.75;;;9.68;86.51
24558;BME280;12726;49.148;8.582;2023-05-01T05:03:46;100202.72;;;9.71;86.66
24558;BME280;12726;49.148;8.582;2023-05-01T05:06:32;100199.41;;;9.76;86.54
24558;BME280;12726;49.148;8.582;2023-05-01T05:09:17;100190.91;;;9.79;86.46
24558;BME280;12726;49.148;8.582;2023-05-01T05:12:04;100197.72;;;9.81;86.15
24558;BME280;12726;49.148;8.582;2023-05-01T05:14:50;100190.44;;;9.89;86.12
24558;BME280;12726;49.148;8.582;2023-05-01T05:17:35;100199.09;;;9.97;86.20
24558;BME280;12726;49.148;8.582;2023-05-01T05:20:21;100203.41;;;10.05;85.52
24558;BME280;12726;49.148;8.582;2023-05-01T05:23:06;100207.31;;;10.15;84.99
24558;BME280;12726;49.148;8.582;2023-05-01T05:25:52;100210.84;;;10.23;84.59
24558;BME280;12726;49.148;8.582;2023-05-01T05:28:39;100209.53;;;10.32;84.00
24558;BME280;12726;49.148;8.582;2023-05-01T05:31:24;100211.13;;;10.39;83.69
24558;BME280;12726;49.148;8.582;2023-05-01T05:34:10;100209.22;;;10.46;82.53
24558;BME280;12726;49.148;8.582;2023-05-01T05:36:55;100203.38;;;10.56;82.21
24558;BME280;12726;49.148;8.582;2023-05-01T05:39:40;100214.06;;;10.69;81.02
24558;BME280;12726;49.148;8.582;2023-05-01T05:42:26;100205.50;;;10.79;80.10
24558;BME280;12726;49.148;8.582;2023-05-01T05:45:12;100218.72;;;10.87;79.47
24558;BME280;12726;49.148;8.582;2023-05-01T05:47:57;100216.00;;;10.87;78.70
24558;BME280;12726;49.148;8.582;2023-05-01T05:50:43;100217.97;;;10.98;79.10
24558;BME280;12726;49.148;8.582;2023-05-01T05:53:28;100209.03;;;11.04;77.98
24558;BME280;12726;49.148;8.582;2023-05-01T05:56:14;100211.03;;;11.09;77.72
24558;BME280;12726;49.148;8.582;2023-05-01T05:59:00;100209.28;;;11.21;77.16
24558;BME280;12726;49.148;8.582;2023-05-01T06:01:48;100195.38;;;11.24;76.61
24558;BME280;12726;49.148;8.582;2023-05-01T06:04:33;100206.00;;;11.37;75.68
24558;BME280;12726;49.148;8.582;2023-05-01T06:07:20;100211.19;;;11.38;75.95
24558;BME280;12726;49.148;8.582;2023-05-01T06:10:06;100215.09;;;11.61;74.48
24558;BME280;12726;49.148;8.582;2023-05-01T06:12:52;100209.50;;;11.62;74.94
24558;BME280;12726;49.148;8.582;2023-05-01T06:15:37;100203.59;;;11.72;75.11
24558;BME280;12726;49.148;8.582;2023-05-01T06:18:23;100212.47;;;11.79;73.90
24558;BME280;12726;49.148;8.582;2023-05-01T06:21:09;100208.75;;;11.73;75.01
24558;BME280;12726;49.148;8.582;2023-05-01T06:23:54;100212.13;;;11.69;74.38
24558;BME280;12726;49.148;8.582;2023-05-01T06:26:39;100207.72;;;11.74;75.09
24558;BME280;12726;49.148;8.582;2023-05-01T06:29:25;100210.13;;;11.83;75.01
24558;BME280;12726;49.148;8.582;2023-05-01T06:32:10;100219.03;;;11.83;75.34
24558;BME280;12726;49.148;8.582;2023-05-01T06:34:57;100217.53;;;11.87;74.73
24558;BME280;12726;49.148;8.582;2023-05-01T06:37:42;100214.22;;;12.03;74.41
24558;BME280;12726;49.148;8.582;2023-05-01T06:40:28;100220.00;;;12.07;74.24
24558;BME280;12726;49.148;8.582;2023-05-01T06:43:14;100229.91;;;12.13;74.39
24558;BME280;12726;49.148;8.582;2023-05-01T06:46:00;100226.63;;;12.23;72.97
24558;BME280;12726;49.148;8.582;2023-05-01T06:48:45;100225.19;;;12.38;73.65
24558;BME280;12726;49.148;8.582;2023-05-01T06:51:31;100225.50;;;12.60;70.78
24558;BME280;12726;49.148;8.582;2023-05-01T06:54:17;100224.19;;;12.51;70.48
24558;BME280;12726;49.148;8.582;2023-05-01T06:57:02;100221.63;;;12.56;69.65
24558;BME280;12726;49.148;8.582;2023-05-01T06:59:48;100224.88;;;12.46;69.90
24558;BME280;12726;49.148;8.582;2023-05-01T07:02:33;100221.31;;;12.34;70.02
24558;BME280;12726;49.148;8.582;2023-05-01T07:05:20;100219.66;;;12.33;70.29
24558;BME280;12726;49.148;8.582;2023-05-01T07:08:07;100224.38;;;12.38;70.46
24558;BME280;12726;49.148;8.582;2023-05-01T07:10:53;100224.97;;;12.40;70.59
24558;BME280;12726;49.148;8.582;2023-05-01T07:13:38;100224.91;;;12.58;69.90
24558;BME280;12726;49.148;8.582;2023-05-01T07:16:24;100226.50;;;12.77;70.87
24558;BME280;12726;49.148;8.582;2023-05-01T07:19:09;100226.53;;;13.01;70.02
24558;BME280;12726;49.148;8.582;2023-05-01T07:21:56;100225.56;;;13.25;67.84
24558;BME280;12726;49.148;8.582;2023-05-01T07:24:43;100227.81;;;13.28;68.19
24558;BME280;12726;49.148;8.582;2023-05-01T07:27:28;100227.91;;;13.33;68.75
24558;BME280;12726;49.148;8.582;2023-05-01T07:30:13;100234.50;;;13.25;67.99
24558;BME280;12726;49.148;8.582;2023-05-01T07:32:59;100223.41;;;13.15;68.64
24558;BME280;12726;49.148;8.582;2023-05-01T07:35:44;100214.34;;;13.10;69.11
24558;BME280;12726;49.148;8.582;2023-05-01T07:38:30;100219.25;;;13.01;69.83
24558;BME280;12726;49.148;8.582;2023-05-01T07:41:16;100220.34;;;13.00;70.00
24558;BME280;12726;49.148;8.582;2023-05-01T07:44:02;100218.81;;;12.92;70.62
24558;BME280;12726;49.148;8.582;2023-05-01T07:46:47;100222.28;;;12.93;71.00
24558;BME280;12726;49.148;8.582;2023-05-01T07:49:35;100214.09;;;13.00;70.91
24558;BME280;12726;49.148;8.582;2023-05-01T07:52:21;100222.91;;;12.95;70.59
24558;BME280;12726;49.148;8.582;2023-05-01T07:55:07;100207.38;;;12.90;70.41
24558;BME280;12726;49.148;8.582;2023-05-01T07:57:54;100209.16;;;12.97;70.47
24558;BME280;12726;49.148;8.582;2023-05-01T08:00:39;100202.59;;;12.92;70.17
24558;BME280;12726;49.148;8.582;2023-05-01T08:03:28;100211.16;;;12.89;69.11
24558;BME280;12726;49.148;8.582;2023-05-01T08:06:13;100210.06;;;12.79;70.25
24558;BME280;12726;49.148;8.582;2023-05-01T08:08:58;100213.72;;;12.84;70.70
24558;BME280;12726;49.148;8.582;2023-05-01T08:11:43;100216.88;;;12.81;70.31
24558;BME280;12726;49.148;8.582;2023-05-01T08:14:30;100228.19;;;13.02;69.75
24558;BME280;12726;49.148;8.582;2023-05-01T08:17:16;100225.97;;;13.10;68.76
24558;BME280;12726;49.148;8.582;2023-05-01T08:20:01;100221.84;;;12.96;68.61
24558;BME280;12726;49.148;8.582;2023-05-01T08:22:47;100220.34;;;13.00;68.69
24558;BME280;12726;49.148;8.582;2023-05-01T08:25:33;100220.59;;;13.22;69.24
24558;BME280;12726;49.148;8.582;2023-05-01T08:28:18;100221.34;;;13.41;68.52
24558;BME280;12726;49.148;8.582;2023-05-01T08:31:05;100223.34;;;13.57;67.59
24558;BME280;12726;49.148;8.582;2023-05-01T08:33:50;100222.34;;;13.75;67.36
24558;BME280;12726;49.148;8.582;2023-05-01T08:36:36;100219.84;;;13.96;66.05
24558;BME280;12726;49.148;8.582;2023-05-01T08:39:21;100220.88;;;14.07;66.19
24558;BME280;12726;49.148;8.582;2023-05-01T08:42:07;100206.50;;;14.18;64.78
24558;BME280;12726;49.148;8.582;2023-05-01T08:44:54;100217.59;;;14.45;63.67
24558;BME280;12726;49.148;8.582;2023-05-01T08:47:44;100217.00;;;15.38;62.41
24558;BME280;12726;49.148;8.582;2023-05-01T08:50:30;100214.19;;;16.54;58.39
24558;BME280;12726;49.148;8.582;2023-05-01T08:53:18;100208.78;;;17.54;55.76
24558;BME280;12726;49.148;8.582;2023-05-01T08:56:05;100219.34;;;17.88;53.95
24558;BME280;12726;49.148;8.582;2023-05-01T08:58:51;100214.06;;;17.66;54.52
24558;BME280;12726;49.148;8.582;2023-05-01T09:01:38;100205.25;;;17.59;53.54
24558;BME280;12726;49.148;8.582;2023-05-01T09:04:28;100207.53;;;17.67;55.06
24558;BME280;12726;49.148;8.582;2023-05-01T09:07:15;100208.34;;;17.68;54.57
24558;BME280;12726;49.148;8.582;2023-05-01T09:10:00;100203.25;;;17.39;54.10
24558;BME280;12726;49.148;8.582;2023-05-01T09:12:49;100202.06;;;17.25;55.52
24558;BME280;12726;49.148;8.582;2023-05-01T09:15:36;100206.91;;;17.18;56.03
24558;BME280;12726;49.148;8.582;2023-05-01T09:18:22;100193.00;;;17.19;55.16
24558;BME280;12726;49.148;8.582;2023-05-01T09:21:09;100198.31;;;16.99;57.07
24558;BME280;12726;49.148;8.582;2023-05-01T09:23:55;100194.25;;;17.02;55.70
24558;BME280;12726;49.148;8.582;2023-05-01T09:26:40;100203.81;;;17.04;57.08
24558;BME280;12726;49.148;8.582;2023-05-01T09:29:39;100209.50;;;17.03;57.10
24558;BME280;12726;49.148;8.582;2023-05-01T09:32:26;100206.34;;;17.16;57.85
24558;BME280;12726;49.148;8.582;2023-05-01T09:35:12;100205.31;;;17.27;56.58
24558;BME280;12726;49.148;8.582;2023-05-01T09:37:59;100208.59;;;17.29;56.23
24558;BME280;12726;49.148;8.582;2023-05-01T09:40:45;100202.34;;;17.71;54.56
24558;BME280;12726;49.148;8.582;2023-05-01T09:43:31;100204.34;;;17.85;55.93
24558;BME280;12726;49.148;8.582;2023-05-01T09:46:16;100199.16;;;17.84;52.97
24558;BME280;12726;49.148;8.582;2023-05-01T09:49:02;100197.06;;;17.54;54.49
24558;BME280;12726;49.148;8.582;2023-05-01T09:51:48;100204.56;;;17.74;54.71
24558;BME280;12726;49.148;8.582;2023-05-01T09:54:34;100210.00;;;17.69;54.85
24558;BME280;12726;49.148;8.582;2023-05-01T09:57:33;100208.94;;;17.80;56.86
24558;BME280;12726;49.148;8.582;2023-05-01T10:00:20;100204.41;;;18.06;54.62
24558;BME280;12726;49.148;8.582;2023-05-01T10:03:12;100206.44;;;18.35;56.51
24558;BME280;12726;49.148;8.582;2023-05-01T10:05:58;100202.13;;;18.50;54.68
24558;BME280;12726;49.148;8.582;2023-05-01T10:08:46;100208.97;;;18.62;56.10
24558;BME280;12726;49.148;8.582;2023-05-01T10:11:46;100205.75;;;18.75;55.01
24558;BME280;12726;49.148;8.582;2023-05-01T10:14:31;100207.94;;;18.99;52.63
24558;BME280;12726;49.148;8.582;2023-05-01T10:17:21;100203.59;;;19.03;53.12
24558;BME280;12726;49.148;8.582;2023-05-01T10:20:08;100204.94;;;19.15;55.64
24558;BME280;12726;49.148;8.582;2023-05-01T10:22:54;100204.94;;;19.00;54.67
24558;BME280;12726;49.148;8.582;2023-05-01T10:25:40;100210.66;;;18.78;55.91
24558;BME280;12726;49.148;8.582;2023-05-01T10:28:28;100214.75;;;18.81;54.71
24558;BME280;12726;49.148;8.582;2023-05-01T10:31:14;100205.75;;;18.75;53.75
24558;BME280;12726;49.148;8.582;2023-05-01T10:33:59;100201.66;;;18.88;52.63
24558;BME280;12726;49.148;8.582;2023-05-01T10:36:50;100206.53;;;18.61;53.76
24558;BME280;12726;49.148;8.582;2023-05-01T10:39:37;100199.69;;;18.53;54.41
24558;BME280;12726;49.148;8.582;2023-05-01T10:42:23;100189.88;;;18.62;56.44
24558;BME280;12726;49.148;8.582;2023-05-01T10:48:05;100193.00;;;18.14;56.31
24558;BME280;12726;49.148;8.582;2023-05-01T10:51:10;100194.00;;;17.82;58.23
24558;BME280;12726;49.148;8.582;2023-05-01T10:54:20;100187.00;;;18.02;59.57
24558;BME280;12726;49.148;8.582;2023-05-01T10:57:06;100194.31;;;17.96;59.57
24558;BME280;12726;49.148;8.582;2023-05-01T11:00:10;100191.66;;;18.11;60.57
24558;BME280;12726;49.148;8.582;2023-05-01T11:06:16;100195.28;;;18.32;59.58
24558;BME280;12726;49.148;8.582;2023-05-01T11:09:38;100186.53;;;18.30;59.32
24558;BME280;12726;49.148;8.582;2023-05-01T11:12:46;100195.41;;;18.00;59.17
24558;BME280;12726;49.148;8.582;2023-05-01T11:15:32;100192.63;;;17.85;61.63
24558;BME280;12726;49.148;8.582;2023-05-01T11:18:44;100196.97;;;17.76;59.61
24558;BME280;12726;49.148;8.582;2023-05-01T11:21:30;100190.13;;;17.73;60.24
24558;BME280;12726;49.148;8.582;2023-05-01T11:24:16;100191.91;;;17.57;58.78
24558;BME280;12726;49.148;8.582;2023-05-01T11:27:03;100189.19;;;17.57;59.17
24558;BME280;12726;49.148;8.582;2023-05-01T11:29:49;100185.53;;;17.84;60.62
24558;BME280;12726;49.148;8.582;2023-05-01T11:32:34;100184.00;;;18.08;59.60
24558;BME280;12726;49.148;8.582;2023-05-01T11:35:21;100178.06;;;18.16;58.11
24558;BME280;12726;49.148;8.582;2023-05-01T11:38:15;100171.25;;;18.24;59.47
24558;BME280;12726;49.148;8.582;2023-05-01T11:41:02;100173.16;;;18.23;57.99
24558;BME280;12726;49.148;8.582;2023-05-01T11:43:50;100170.34;;;17.98;60.08
24558;BME280;12726;49.148;8.582;2023-05-01T11:46:35;100162.72;;;17.90;60.16
24558;BME280;12726;49.148;8.582;2023-05-01T11:49:25;100173.78;;;17.73;59.96
24558;BME280;12726;49.148;8.582;2023-05-01T11:52:11;100173.31;;;17.44;63.50
24558;BME280;12726;49.148;8.582;2023-05-01T11:54:56;100165.88;;;17.30;60.51
24558;BME280;12726;49.148;8.582;2023-05-01T11:57:46;100163.41;;;17.65;60.37
24558;BME280;12726;49.148;8.582;2023-05-01T12:00:34;100169.72;;;17.76;60.98
24558;BME280;12726;49.148;8.582;2023-05-01T12:03:20;100171.66;;;17.80;60.05
24558;BME280;12726;49.148;8.582;2023-05-01T12:06:08;100170.75;;;17.70;61.42
24558;BME280;12726;49.148;8.582;2023-05-01T12:08:53;100161.78;;;17.69;62.48
24558;BME280;12726;49.148;8.582;2023-05-01T12:11:39;100169.16;;;17.74;62.33
24558;BME280;12726;49.148;8.582;2023-05-01T12:14:24;100171.63;;;17.75;60.86
24558;BME280;12726;49.148;8.582;2023-05-01T12:17:11;100163.16;;;17.72;61.16
24558;BME280;12726;49.148;8.582;2023-05-01T12:19:56;100149.59;;;17.82;61.03
24558;BME280;12726;49.148;8.582;2023-05-01T12:22:48;100160.56;;;17.97;60.31
24558;BME280;12726;49.148;8.582;2023-05-01T12:25:35;100167.16;;;18.16;59.57
24558;BME280;12726;49.148;8.582;2023-05-01T12:28:22;100162.97;;;17.93;59.08
24558;BME280;12726;49.148;8.582;2023-05-01T12:31:07;100156.16;;;17.91;58.69
24558;BME280;12726;49.148;8.582;2023-05-01T12:33:55;100163.00;;;17.98;59.73
24558;BME280;12726;49.148;8.582;2023-05-01T12:36:41;100165.19;;;18.02;58.31
24558;BME280;12726;49.148;8.582;2023-05-01T12:39:37;100163.03;;;18.09;60.21
24558;BME280;12726;49.148;8.582;2023-05-01T12:42:23;100165.19;;;18.02;58.83
24558;BME280;12726;49.148;8.582;2023-05-01T12:45:09;100158.84;;;17.81;58.64
24558;BME280;12726;49.148;8.582;2023-05-01T12:47:57;100158.59;;;17.82;57.84
24558;BME280;12726;49.148;8.582;2023-05-01T12:50:45;100158.84;;;17.81;57.75
24558;BME280;12726;49.148;8.582;2023-05-01T12:53:42;100156.56;;;17.63;59.11
24558;BME280;12726;49.148;8.582;2023-05-01T12:56:28;100155.69;;;17.57;59.26
24558;BME280;12726;49.148;8.582;2023-05-01T12:59:21;100163.31;;;17.55;58.93
24558;BME280;12726;49.148;8.582;2023-05-01T13:02:07;100161.19;;;17.62;59.96
24558;BME280;12726;49.148;8.582;2023-05-01T13:05:04;100154.72;;;17.68;61.05
24558;BME280;12726;49.148;8.582;2023-05-01T13:07:51;100154.03;;;17.51;61.32
24558;BME280;12726;49.148;8.582;2023-05-01T13:10:37;100147.50;;;17.47;60.24
24558;BME280;12726;49.148;8.582;2023-05-01T13:13:24;100139.63;;;17.55;61.65
24558;BME280;12726;49.148;8.582;2023-05-01T13:16:11;100137.00;;;17.71;62.40
24558;BME280;12726;49.148;8.582;2023-05-01T13:18:56;100139.78;;;17.76;61.11
24558;BME280;12726;49.148;8.582;2023-05-01T13:21:45;100139.22;;;17.79;61.14
24558;BME280;12726;49.148;8.582;2023-05-01T13:24:37;100135.66;;;17.68;60.41
24558;BME280;12726;49.148;8.582;2023-05-01T13:27:23;100134.78;;;17.63;60.41
24558;BME280;12726;49.148;8.582;2023-05-01T13:30:09;100138.28;;;17.53;61.87
24558;BME280;12726;49.148;8.582;2023-05-01T13:32:54;100135.47;;;17.38;62.86
24558;BME280;12726;49.148;8.582;2023-05-01T13:35:39;100136.31;;;17.43;61.13
24558;BME280;12726;49.148;8.582;2023-05-01T13:38:25;100136.06;;;17.50;61.67
24558;BME280;12726;49.148;8.582;2023-05-01T13:41:19;100141.06;;;17.63;60.40
24558;BME280;12726;49.148;8.582;2023-05-01T13:44:05;100124.69;;;17.58;59.97
24558;BME280;12726;49.148;8.582;2023-05-01T13:46:51;100133.91;;;17.57;60.60
24558;BME280;12726;49.148;8.582;2023-05-01T13:49:40;100117.38;;;17.64;61.07
24558;BME280;12726;49.148;8.582;2023-05-01T13:52:28;100120.72;;;17.81;59.63
24558;BME280;12726;49.148;8.582;2023-05-01T13:55:13;100109.84;;;17.91;58.19
24558;BME280;12726;49.148;8.582;2023-05-01T13:58:00;100117.50;;;17.99;59.11
24558;BME280;12726;49.148;8.582;2023-05-01T14:00:46;100116.75;;;18.29;57.93
24558;BME280;12726;49.148;8.582;2023-05-01T14:03:37;100109.47;;;18.60;56.93
24558;BME280;12726;49.148;8.582;2023-05-01T14:06:24;100120.38;;;18.65;57.78
24558;BME280;12726;49.148;8.582;2023-05-01T14:09:09;100115.19;;;18.84;56.29
24558;BME280;12726;49.148;8.582;2023-05-01T14:11:54;100107.81;;;18.84;57.50
24558;BME280;12726;49.148;8.582;2023-05-01T14:14:46;100101.53;;;19.09;55.82
24558;BME280;12726;49.148;8.582;2023-05-01T14:17:33;100101.56;;;18.73;55.93
24558;BME280;12726;49.148;8.582;2023-05-01T14:20:18;100099.34;;;18.50;56.66
24558;BME280;12726;49.148;8.582;2023-05-01T14:23:04;100103.41;;;18.43;56.97
24558;BME280;12726;49.148;8.582;2023-05-01T14:25:50;100097.97;;;18.32;56.77
24558;BME280;12726;49.148;8.582;2023-05-01T14:28:40;100098.78;;;18.48;56.29
24558;BME280;12726;49.148;8.582;2023-05-01T14:31:28;100101.75;;;18.11;56.95
24558;BME280;12726;49.148;8.582;2023-05-01T14:34:16;100100.38;;;18.14;57.82
24558;BME280;12726;49.148;8.582;2023-05-01T14:37:02;100099.00;;;18.01;58.33
24558;BME280;12726;49.148;8.582;2023-05-01T14:39:47;100099.81;;;17.96;57.57
24558;BME280;12726;49.148;8.582;2023-05-01T14:42:33;100110.72;;;17.96;57.64
24558;BME280;12726;49.148;8.582;2023-05-01T14:45:18;100102.81;;;18.05;59.92
24558;BME280;12726;49.148;8.582;2023-05-01T14:48:05;100108.25;;;18.00;59.49
24558;BME280;12726;49.148;8.582;2023-05-01T14:50:51;100102.22;;;17.88;57.90